createdAt,value
2022-10-17T04:45:55.257Z,99.99
2022-10-17T04:46:56.229Z,99.99
2022-10-17T04:47:56.224Z,99.99
2022-10-17T04:48:56.226Z,99.99
2022-10-17T04:49:56.201Z,99.99
2022-10-17T04:50:56.192Z,99.99
2022-10-17T04:51:56.176Z,99.99
2022-10-17T04:52:56.172Z,99.99
2022-10-17T04:53:56.172Z,99.99
2022-10-17T04:54:56.145Z,99.99
2022-10-17T04:55:56.135Z,99.99
2022-10-17T04:56:56.123Z,99.99
2022-10-17T04:57:56.111Z,99.99
2022-10-17T04:58:56.116Z,99.99
2022-10-17T04:59:56.145Z,99.99
2022-10-17T05:00:56.116Z,99.99
2022-10-17T05:01:56.072Z,99.99
2022-10-17T05:02:56.059Z,99.99
2022-10-17T05:03:56.070Z,99.99
2022-10-17T05:04:56.031Z,99.91
2022-10-17T05:05:56.028Z,99.61
2022-10-17T05:06:56.016Z,99.51
2022-10-17T05:07:56.010Z,99.71
2022-10-17T05:08:56.035Z,99.91
2022-10-17T05:09:55.986Z,99.99
2022-10-17T05:10:56.025Z,99.99
2022-10-17T05:11:55.967Z,99.99
2022-10-17T05:12:55.947Z,99.99
2022-10-17T05:13:55.987Z,99.99
2022-10-17T05:14:55.927Z,99.99
2022-10-17T05:15:55.921Z,99.91
2022-10-17T05:16:55.916Z,99.81
2022-10-17T05:17:55.900Z,99.99
2022-10-17T05:18:55.904Z,99.81
2022-10-17T05:19:55.891Z,99.81
2022-10-17T05:20:55.867Z,99.71
2022-10-17T05:21:55.861Z,99.51
2022-10-17T05:22:55.847Z,99.30
2022-10-17T05:23:55.855Z,99.21
2022-10-17T05:24:55.825Z,99.21
2022-10-17T05:25:55.815Z,99.21
2022-10-17T05:26:55.803Z,99.41
2022-10-17T05:27:55.796Z,99.51
2022-10-17T05:28:55.884Z,99.41
2022-10-17T05:29:55.776Z,99.30
2022-10-17T05:30:55.759Z,99.01
2022-10-17T05:31:55.837Z,99.21
2022-10-17T05:32:55.740Z,99.51
2022-10-17T05:33:55.757Z,99.41
2022-10-17T05:34:55.721Z,99.41
2022-10-17T05:35:55.719Z,99.41
2022-10-17T05:36:55.700Z,99.10
2022-10-17T05:37:55.700Z,99.01
2022-10-17T05:38:55.688Z,99.10
2022-10-17T05:39:55.671Z,99.21
2022-10-17T05:40:55.658Z,99.51
2022-10-17T05:41:55.654Z,99.71
2022-10-17T05:42:55.633Z,99.61
2022-10-17T05:43:55.643Z,99.51
2022-10-17T05:44:55.614Z,99.41
2022-10-17T05:45:55.615Z,99.30
2022-10-17T05:46:55.594Z,99.30
2022-10-17T05:47:55.574Z,99.21
2022-10-17T05:48:55.572Z,99.10
2022-10-17T05:49:55.563Z,98.90
2022-10-17T05:50:55.550Z,98.75
2022-10-17T05:51:55.546Z,98.85
2022-10-17T05:52:55.531Z,99.21
2022-10-17T05:53:55.546Z,99.10
2022-10-17T05:54:55.511Z,99.10
2022-10-17T05:55:55.501Z,99.10
2022-10-17T05:56:55.487Z,99.10
2022-10-17T05:57:55.485Z,99.01
2022-10-17T05:59:00.786Z,98.85
2022-10-17T05:59:55.472Z,98.96
2022-10-17T06:00:55.445Z,99.01
2022-10-17T06:01:55.525Z,98.85
2022-10-17T06:02:55.427Z,98.85
2022-10-17T06:03:55.435Z,98.90
2022-10-17T06:04:55.406Z,99.10
2022-10-17T06:05:55.399Z,98.85
2022-10-17T06:06:55.388Z,98.55
2022-10-17T06:07:58.245Z,98.55
2022-10-17T06:08:55.371Z,98.45
2022-10-17T06:09:55.377Z,98.45
2022-10-17T06:10:55.339Z,98.35
2022-10-17T06:11:55.338Z,98.55
2022-10-17T06:12:55.316Z,98.55
2022-10-17T06:13:55.318Z,98.45
2022-10-17T06:14:55.316Z,98.35
2022-10-17T06:15:55.296Z,98.35
2022-10-17T06:16:55.279Z,98.35
2022-10-17T06:17:55.275Z,98.10
2022-10-17T06:18:55.263Z,97.49
2022-10-17T06:19:55.262Z,97.29
2022-10-17T06:20:55.234Z,97.19
2022-10-17T06:21:55.229Z,97.19
2022-10-17T06:22:55.212Z,96.54
2022-10-17T06:23:55.218Z,95.58
2022-10-17T06:24:55.210Z,95.28
2022-10-17T06:25:55.185Z,95.28
2022-10-17T06:26:55.171Z,95.18
2022-10-17T06:27:55.170Z,95.38
2022-10-17T06:28:55.232Z,95.48
2022-10-17T06:29:55.180Z,95.78
2022-10-17T06:30:55.125Z,95.89
2022-10-17T06:31:55.126Z,96.09
2022-10-17T06:32:55.105Z,95.78
2022-10-17T06:33:55.104Z,95.38
2022-10-17T06:34:55.102Z,94.98
2022-10-17T06:35:55.078Z,94.53
2022-10-17T06:37:55.068Z,93.72
2022-10-17T06:38:55.050Z,93.72
2022-10-17T06:39:55.056Z,93.17
2022-10-17T06:40:55.019Z,93.07
2022-10-17T06:41:55.017Z,93.17
2022-10-17T06:42:55.003Z,93.57
2022-10-17T06:43:55.001Z,93.27
2022-10-17T06:44:54.995Z,93.37
2022-10-17T06:45:54.977Z,93.37
2022-10-17T06:46:54.961Z,93.17
2022-10-17T06:47:54.951Z,93.27
2022-10-17T06:48:54.936Z,94.08
2022-10-17T06:49:54.946Z,94.53
2022-10-17T06:50:54.912Z,94.93
2022-10-17T06:51:54.921Z,94.93
2022-10-17T06:52:54.896Z,94.83
2022-10-17T06:53:54.891Z,94.32
2022-10-17T06:54:54.912Z,93.92
2022-10-17T06:55:54.864Z,93.37
2022-10-17T06:56:54.854Z,92.97
2022-10-17T06:57:54.844Z,92.77
2022-10-17T06:58:54.826Z,92.12
2022-10-17T06:59:54.836Z,91.82
2022-10-17T07:00:58.641Z,91.41
2022-10-17T07:01:55.059Z,91.91
2022-10-17T07:02:54.791Z,91.82
2022-10-17T07:03:54.787Z,92.12
2022-10-17T07:04:54.794Z,91.51
2022-10-17T07:05:54.767Z,91.11
2022-10-17T07:06:54.808Z,91.21
2022-10-17T07:07:54.751Z,90.97
2022-10-17T07:08:54.726Z,90.66
2022-10-17T07:09:54.725Z,91.17
2022-10-17T07:10:54.721Z,91.06
2022-10-17T07:11:54.699Z,91.37
2022-10-17T07:12:54.688Z,90.97
2022-10-17T07:13:54.675Z,91.11
2022-10-17T07:14:54.659Z,91.17
2022-10-17T07:15:54.735Z,91.17
2022-10-17T07:16:54.648Z,90.97
2022-10-17T07:17:54.638Z,91.17
2022-10-17T07:18:54.623Z,91.06
2022-10-17T07:19:54.621Z,90.77
2022-10-17T07:20:54.613Z,91.17
2022-10-17T07:21:54.592Z,90.66
2022-10-17T07:22:54.576Z,90.66
2022-10-17T07:23:54.571Z,90.46
2022-10-17T07:24:54.561Z,90.11
2022-10-17T07:25:54.567Z,89.91
2022-10-17T07:26:54.529Z,90.01
2022-10-17T07:27:54.528Z,89.51
2022-10-17T07:28:54.536Z,89.71
2022-10-17T07:29:54.510Z,89.06
2022-10-17T07:30:54.649Z,89.06
2022-10-17T07:31:54.488Z,89.17
2022-10-17T07:32:54.473Z,88.86
2022-10-17T07:33:54.606Z,88.76
2022-10-17T07:34:54.451Z,88.16
2022-10-17T07:35:54.458Z,88.46
2022-10-17T07:36:54.423Z,88.02
2022-10-17T07:37:54.421Z,88.22
2022-10-17T07:38:54.403Z,88.32
2022-10-17T07:39:54.398Z,87.21
2022-10-17T07:40:54.406Z,87.47
2022-10-17T07:41:54.375Z,87.51
2022-10-17T07:42:54.362Z,87.31
2022-10-17T07:43:54.363Z,87.67
2022-10-17T07:44:54.339Z,87.07
2022-10-17T07:45:54.351Z,87.37
2022-10-17T07:46:54.319Z,87.27
2022-10-17T07:47:54.312Z,87.37
2022-10-17T07:48:54.299Z,87.77
2022-10-17T07:49:54.298Z,88.28
2022-10-17T07:50:54.299Z,87.51
2022-10-17T07:51:54.268Z,87.27
2022-10-17T07:52:54.264Z,88.38
2022-10-17T07:53:54.246Z,87.27
2022-10-17T07:54:54.235Z,87.17
2022-10-17T07:55:54.245Z,86.46
2022-10-17T07:56:54.217Z,86.83
2022-10-17T07:57:54.226Z,86.43
2022-10-17T07:58:54.276Z,86.32
2022-10-17T07:59:54.186Z,86.22
2022-10-17T08:00:54.358Z,86.68
2022-10-17T08:01:54.167Z,86.08
2022-10-17T08:02:54.150Z,85.48
2022-10-17T08:03:54.144Z,85.38
2022-10-17T08:04:54.123Z,85.48
2022-10-17T08:05:54.124Z,85.98
2022-10-17T08:07:05.465Z,85.98
2022-10-17T08:07:54.098Z,86.28
2022-10-17T08:08:54.083Z,85.98
2022-10-17T08:09:54.115Z,85.58
2022-10-17T08:10:54.064Z,85.58
2022-10-17T08:11:54.070Z,85.84
2022-10-17T08:12:54.045Z,86.04
2022-10-17T08:13:54.043Z,85.94
2022-10-17T08:14:54.029Z,85.24
2022-10-17T08:15:54.027Z,84.94
2022-10-17T08:16:54.010Z,85.33
2022-10-17T08:17:53.996Z,85.50
2022-10-17T08:18:53.980Z,84.53
2022-10-17T08:19:53.981Z,84.53
2022-10-17T08:20:56.801Z,86.20
2022-10-17T08:21:53.960Z,85.30
2022-10-17T08:22:53.934Z,85.30
2022-10-17T08:23:53.926Z,85.50
2022-10-17T08:24:53.917Z,84.39
2022-10-17T08:25:53.908Z,83.45
2022-10-17T08:26:53.911Z,83.85
2022-10-17T08:27:53.948Z,83.31
2022-10-17T08:28:53.921Z,83.61
2022-10-17T08:29:53.865Z,82.90
2022-10-17T08:30:53.868Z,84.17
2022-10-17T08:31:58.556Z,83.57
2022-10-17T08:32:53.838Z,84.07
2022-10-17T08:33:53.823Z,84.17
2022-10-17T08:34:53.809Z,83.21
2022-10-17T08:35:53.818Z,82.90
2022-10-17T08:36:53.798Z,84.71
2022-10-17T08:37:53.794Z,83.71
2022-10-17T08:38:53.774Z,82.90
2022-10-17T08:39:53.765Z,84.01
2022-10-17T08:40:53.780Z,84.51
2022-10-17T08:41:53.740Z,84.91
2022-10-17T08:42:53.735Z,84.01
2022-10-17T08:43:53.754Z,83.45
2022-10-17T08:44:53.721Z,82.60
2022-10-17T08:45:53.842Z,84.21
2022-10-17T08:46:53.689Z,82.57
2022-10-17T08:47:53.681Z,82.97
2022-10-17T08:48:53.669Z,82.70
2022-10-17T08:49:53.655Z,82.46
2022-10-17T08:50:53.649Z,81.67
2022-10-17T08:51:53.661Z,80.42
2022-10-17T08:52:53.629Z,79.72
2022-10-17T08:53:53.623Z,79.18
2022-10-17T08:54:53.605Z,78.94
2022-10-17T08:55:53.603Z,78.50
2022-10-17T08:56:53.607Z,78.67
2022-10-17T08:57:53.579Z,77.13
2022-10-17T08:58:53.573Z,76.49
2022-10-17T08:59:53.603Z,74.79
2022-10-17T09:00:53.548Z,75.73
2022-10-17T09:01:53.547Z,75.83
2022-10-17T09:02:53.607Z,74.66
2022-10-17T09:03:53.512Z,72.42
2022-10-17T09:04:53.505Z,71.92
2022-10-17T09:05:53.498Z,72.06
2022-10-17T09:06:53.494Z,71.69
2022-10-17T09:07:53.514Z,71.59
2022-10-17T09:08:53.462Z,70.86
2022-10-17T09:09:53.453Z,70.86
2022-10-17T09:10:53.440Z,69.73
2022-10-17T09:11:53.445Z,69.29
2022-10-17T09:12:53.423Z,71.62
2022-10-17T09:13:53.401Z,68.33
2022-10-17T09:14:53.398Z,68.99
2022-10-17T09:15:53.387Z,69.23
2022-10-17T09:16:53.386Z,69.36
2022-10-17T09:17:53.363Z,67.83
2022-10-17T09:18:53.362Z,68.53
2022-10-17T09:19:53.341Z,67.33
2022-10-17T09:20:53.333Z,67.54
2022-10-17T09:21:53.326Z,66.94
2022-10-17T09:22:53.368Z,67.30
2022-10-17T09:23:59.684Z,66.31
2022-10-17T09:24:53.301Z,67.54
2022-10-17T09:25:53.275Z,64.00
2022-10-17T09:26:53.284Z,64.22
2022-10-17T09:27:53.258Z,64.92
2022-10-17T09:28:53.372Z,65.64
2022-10-17T09:29:53.233Z,66.11
2022-10-17T09:30:53.230Z,66.87
2022-10-17T09:31:53.318Z,66.31
2022-10-17T09:32:53.211Z,67.86
2022-10-17T09:33:54.597Z,66.74
2022-10-17T09:34:53.193Z,65.05
2022-10-17T09:35:53.179Z,66.41
2022-10-17T09:36:53.198Z,67.24
2022-10-17T09:37:53.150Z,67.50
2022-10-17T09:38:53.145Z,67.54
2022-10-17T09:39:53.128Z,68.63
2022-10-17T09:40:56.841Z,68.99
2022-10-17T09:41:53.127Z,70.86
2022-10-17T09:42:53.105Z,71.59
2022-10-17T09:43:53.089Z,73.22
2022-10-17T09:44:53.082Z,72.76
2022-10-17T09:45:53.069Z,73.49
2022-10-17T09:46:53.063Z,74.63
2022-10-17T09:47:53.065Z,75.02
2022-10-17T09:48:53.538Z,75.46
2022-10-17T09:49:53.030Z,76.17
2022-10-17T09:51:02.625Z,77.10
2022-10-17T09:51:53.015Z,76.80
2022-10-17T09:52:53.017Z,77.30
2022-10-17T09:53:52.984Z,77.00
2022-10-17T09:54:52.982Z,77.00
2022-10-17T09:55:52.971Z,76.74
2022-10-17T09:56:52.961Z,77.54
2022-10-17T09:57:52.964Z,78.14
2022-10-17T09:58:52.937Z,77.10
2022-10-17T09:59:52.923Z,77.53
2022-10-17T10:00:52.989Z,76.63
2022-10-17T10:01:52.902Z,73.86
2022-10-17T10:02:52.914Z,74.79
2022-10-17T10:03:52.884Z,73.85
2022-10-17T10:05:03.735Z,70.26
2022-10-17T10:05:52.871Z,68.23
2022-10-17T10:06:52.855Z,67.86
2022-10-17T10:07:52.854Z,69.16
2022-10-17T10:08:52.837Z,69.73
2022-10-17T10:09:52.813Z,71.52
2022-10-17T10:10:52.815Z,72.75
2022-10-17T10:11:52.799Z,72.62
2022-10-17T10:12:52.816Z,72.85
2022-10-17T10:13:52.787Z,72.29
2022-10-17T10:14:54.745Z,72.92
2022-10-17T10:15:52.758Z,74.82
2022-10-17T10:16:52.747Z,75.96
2022-10-17T10:17:52.748Z,75.46
2022-10-17T10:18:52.734Z,74.72
2022-10-17T10:19:52.716Z,75.18
2022-10-17T10:20:52.719Z,73.32
2022-10-17T10:21:52.699Z,71.42
2022-10-17T10:22:54.981Z,70.83
2022-10-17T10:23:52.676Z,73.42
2022-10-17T10:24:52.664Z,70.72
2022-10-17T10:25:52.655Z,71.39
2022-10-17T10:26:52.649Z,69.20
2022-10-17T10:27:52.646Z,69.23
2022-10-17T10:28:52.702Z,66.21
2022-10-17T10:29:52.611Z,67.27
2022-10-17T10:30:52.608Z,68.40
2022-10-17T10:31:52.593Z,71.02
2022-10-17T10:32:52.602Z,69.76
2022-10-17T10:33:56.704Z,70.83
2022-10-17T10:34:52.565Z,73.55
2022-10-17T10:35:52.548Z,74.49
2022-10-17T10:36:52.541Z,73.42
2022-10-17T10:37:52.550Z,74.12
2022-10-17T10:38:52.523Z,72.92
2022-10-17T10:39:52.505Z,72.52
2022-10-17T10:40:52.505Z,75.52
2022-10-17T10:41:52.487Z,73.62
2022-10-17T10:42:52.475Z,73.32
2022-10-17T10:43:52.480Z,74.22
2022-10-17T10:44:52.460Z,74.12
2022-10-17T10:45:52.437Z,74.32
2022-10-17T10:46:52.442Z,74.42
2022-10-17T10:47:52.427Z,75.12
2022-10-17T10:48:52.430Z,74.22
2022-10-17T10:49:52.404Z,74.02
2022-10-17T10:50:52.397Z,75.32
2022-10-17T10:51:52.380Z,77.02
2022-10-17T10:52:52.370Z,75.85
2022-10-17T10:53:52.376Z,75.99
2022-10-17T10:54:52.358Z,76.95
2022-10-17T10:55:52.360Z,76.29
2022-10-17T10:56:53.494Z,76.99
2022-10-17T10:57:52.321Z,75.79
2022-10-17T10:58:52.327Z,76.29
2022-10-17T10:59:52.299Z,78.29
2022-10-17T11:00:52.322Z,78.13
2022-10-17T11:01:52.284Z,76.83
2022-10-17T11:02:52.268Z,78.23
2022-10-17T11:03:52.279Z,80.39
2022-10-17T11:04:52.252Z,77.13
2022-10-17T11:05:52.242Z,79.03
2022-10-17T11:06:52.233Z,80.13
2022-10-17T11:07:52.218Z,79.73
2022-10-17T11:08:52.209Z,79.23
2022-10-17T11:09:52.203Z,78.63
2022-10-17T11:10:52.198Z,78.49
2022-10-17T11:11:52.176Z,79.39
2022-10-17T11:12:52.170Z,77.89
2022-10-17T11:13:54.075Z,79.19
2022-10-17T11:14:52.162Z,77.73
2022-10-17T11:15:52.135Z,79.73
2022-10-17T11:16:52.127Z,78.73
2022-10-17T11:17:52.114Z,79.93
2022-10-17T11:18:52.115Z,79.83
2022-10-17T11:19:52.106Z,78.13
2022-10-17T11:20:52.087Z,78.03
2022-10-17T11:21:52.079Z,80.73
2022-10-17T11:22:52.065Z,78.89
2022-10-17T11:23:52.068Z,78.59
2022-10-17T11:24:52.060Z,78.29
2022-10-17T11:25:52.031Z,77.89
2022-10-17T11:26:52.031Z,80.95
2022-10-17T11:27:51.999Z,79.25
2022-10-17T11:28:52.066Z,79.75
2022-10-17T11:29:52.023Z,80.76
2022-10-17T11:30:51.982Z,80.26
2022-10-17T11:31:51.972Z,79.05
2022-10-17T11:32:51.965Z,77.95
2022-10-17T11:33:51.949Z,75.59
2022-10-17T11:34:51.959Z,75.59
2022-10-17T11:35:51.922Z,74.49
2022-10-17T11:36:51.923Z,74.09
2022-10-17T11:37:51.905Z,75.09
2022-10-17T11:38:51.899Z,74.03
2022-10-17T11:39:51.899Z,77.33
2022-10-17T11:40:51.882Z,74.53
2022-10-17T11:41:53.294Z,76.17
2022-10-17T11:42:51.857Z,75.87
2022-10-17T11:43:51.841Z,74.37
2022-10-17T11:44:51.932Z,74.87
2022-10-17T11:45:52.546Z,76.56
2022-10-17T11:46:51.818Z,76.46
2022-10-17T11:47:51.804Z,77.67
2022-10-17T11:48:51.817Z,76.87
2022-10-17T11:49:52.231Z,79.13
2022-10-17T11:52:00.782Z,78.47
2022-10-17T11:52:56.387Z,76.67
2022-10-17T11:53:51.742Z,76.97
2022-10-17T11:54:51.748Z,75.37
2022-10-17T11:55:51.720Z,75.76
2022-10-17T11:56:51.716Z,74.56
2022-10-17T11:57:51.712Z,74.43
2022-10-17T11:58:51.723Z,75.83
2022-10-17T11:59:51.776Z,75.52
2022-10-17T12:00:51.697Z,76.87
2022-10-17T12:01:51.684Z,76.37
2022-10-17T12:02:51.675Z,75.46
2022-10-17T12:03:51.640Z,75.96
2022-10-17T12:04:51.710Z,75.76
2022-10-17T12:05:51.621Z,75.40
2022-10-17T12:06:51.606Z,75.60
2022-10-17T12:07:51.598Z,75.90
2022-10-17T12:08:51.590Z,77.50
2022-10-17T12:09:51.577Z,76.80
2022-10-17T12:10:51.582Z,77.60
2022-10-17T12:11:51.582Z,76.50
2022-10-17T12:12:51.543Z,77.60
2022-10-17T12:13:51.540Z,78.00
2022-10-17T12:14:51.524Z,78.30
2022-10-17T12:15:51.523Z,79.34
2022-10-17T12:16:51.508Z,77.84
2022-10-17T12:17:51.498Z,77.34
2022-10-17T12:18:51.493Z,77.04
2022-10-17T12:19:51.468Z,76.54
2022-10-17T12:20:51.472Z,76.54
2022-10-17T12:21:51.447Z,76.20
2022-10-17T12:22:51.440Z,76.30
2022-10-17T12:23:51.430Z,76.80
2022-10-17T12:24:51.492Z,78.00
2022-10-17T12:25:51.421Z,78.10
2022-10-17T12:26:54.057Z,76.24
2022-10-17T12:27:51.386Z,76.54
2022-10-17T12:28:51.429Z,76.90
2022-10-17T12:29:51.366Z,75.80
2022-10-17T12:30:51.375Z,75.70
2022-10-17T12:31:51.345Z,77.91
2022-10-17T12:33:04.206Z,76.00
2022-10-17T12:33:51.326Z,76.30
2022-10-17T12:34:51.314Z,76.50
2022-10-17T12:35:51.310Z,76.00
2022-10-17T12:36:51.298Z,75.90
2022-10-17T12:37:51.284Z,77.60
2022-10-17T12:38:51.281Z,76.30
2022-10-17T12:39:51.260Z,78.10
2022-10-17T12:40:51.296Z,77.40
2022-10-17T12:41:51.241Z,78.41
2022-10-17T12:42:51.234Z,76.70
2022-10-17T12:44:51.375Z,77.40
2022-10-17T12:45:51.212Z,78.30
2022-10-17T12:46:51.238Z,79.91
2022-10-17T12:47:51.182Z,78.70
2022-10-17T12:48:51.170Z,78.84
2022-10-17T12:49:55.760Z,78.70
2022-10-17T12:50:51.173Z,81.41
2022-10-17T12:51:51.134Z,77.54
2022-10-17T12:53:51.115Z,78.54
2022-10-17T12:55:00.243Z,76.74
2022-10-17T12:55:51.117Z,77.44
2022-10-17T12:56:51.090Z,77.94
2022-10-17T12:57:51.076Z,77.44
2022-10-17T12:58:51.070Z,77.34
2022-10-17T12:59:51.053Z,77.84
2022-10-17T13:01:11.839Z,78.14
2022-10-17T13:01:51.071Z,77.04
2022-10-17T13:02:51.030Z,79.30
2022-10-17T13:03:51.010Z,80.00
2022-10-17T13:04:51.003Z,78.80
2022-10-17T13:05:51.008Z,77.86
2022-10-17T13:06:50.988Z,77.36
2022-10-17T13:07:50.970Z,78.77
2022-10-17T13:08:55.405Z,76.56
2022-10-17T13:09:50.954Z,76.46
2022-10-17T13:10:52.554Z,76.26
2022-10-17T13:11:50.923Z,77.17
2022-10-17T13:12:51.015Z,76.56
2022-10-17T13:13:50.912Z,76.73
2022-10-17T13:14:50.895Z,77.03
2022-10-17T13:15:50.899Z,78.03
2022-10-17T13:16:50.876Z,79.03
2022-10-17T13:17:50.870Z,78.73
2022-10-17T13:18:50.858Z,79.33
2022-10-17T13:19:50.861Z,79.33
2022-10-17T13:20:50.841Z,78.43
2022-10-17T13:21:50.846Z,79.23
2022-10-17T13:22:50.813Z,77.47
2022-10-17T13:23:50.807Z,79.17
2022-10-17T13:24:50.790Z,80.87
2022-10-17T13:25:50.800Z,80.47
2022-10-17T13:26:50.773Z,79.47
2022-10-17T13:27:50.767Z,80.36
2022-10-17T13:28:50.848Z,78.77
2022-10-17T13:29:50.745Z,79.21
2022-10-17T13:30:51.440Z,79.60
2022-10-17T13:31:50.732Z,78.80
2022-10-17T13:32:50.710Z,82.81
2022-10-17T13:33:50.705Z,82.61
2022-10-17T13:34:50.688Z,79.80
2022-10-17T13:36:06.175Z,81.81
2022-10-17T13:36:50.681Z,80.11
2022-10-17T13:37:53.911Z,79.85
2022-10-17T13:38:50.668Z,81.04
2022-10-17T13:39:55.753Z,81.95
2022-10-17T13:40:50.889Z,79.74
2022-10-17T13:41:50.711Z,79.50
2022-10-17T13:42:50.610Z,81.11
2022-10-17T13:43:50.599Z,80.21
2022-10-17T13:44:50.594Z,80.51
2022-10-17T13:45:50.584Z,80.80
2022-10-17T13:46:50.581Z,80.07
2022-10-17T13:47:50.561Z,79.97
2022-10-17T13:48:50.548Z,81.37
2022-10-17T13:49:55.023Z,80.71
2022-10-17T13:50:50.556Z,80.80
2022-10-17T13:51:50.520Z,81.01
2022-10-17T13:52:50.503Z,79.10
2022-10-17T13:53:50.500Z,81.01
2022-10-17T13:54:50.486Z,82.01
2022-10-17T13:56:09.163Z,80.85
2022-10-17T13:56:50.558Z,79.64
2022-10-17T13:57:50.461Z,80.04
2022-10-17T13:58:50.441Z,80.85
2022-10-17T13:59:50.441Z,82.35
2022-10-17T14:00:50.483Z,79.85
2022-10-17T14:01:50.435Z,82.05
2022-10-17T14:02:50.396Z,80.18
2022-10-17T14:04:02.202Z,82.09
2022-10-17T14:05:15.724Z,80.98
2022-10-17T14:05:50.394Z,80.38
2022-10-17T14:06:52.211Z,82.79
2022-10-17T14:08:50.336Z,82.09
2022-10-17T14:09:50.348Z,81.52
2022-10-17T14:10:50.312Z,82.63
2022-10-17T14:11:50.346Z,82.23
2022-10-17T14:12:51.151Z,80.52
2022-10-17T14:13:50.290Z,81.38
2022-10-17T14:15:09.862Z,80.58
2022-10-17T14:15:50.284Z,79.98
2022-10-17T14:16:50.266Z,81.29
2022-10-17T14:17:50.247Z,82.09
2022-10-17T14:18:50.226Z,80.88
2022-10-17T14:20:06.577Z,81.29
2022-10-17T14:21:50.232Z,80.48
2022-10-17T14:23:04.501Z,79.98
2022-10-17T14:23:50.197Z,79.98
2022-10-17T14:24:50.168Z,80.38
2022-10-17T14:25:50.161Z,81.38
2022-10-17T14:26:50.164Z,83.09
2022-10-17T14:27:50.143Z,81.88
2022-10-17T14:28:50.196Z,80.82
2022-10-17T14:29:50.114Z,80.82
2022-10-17T14:30:57.958Z,80.68
2022-10-17T14:31:50.121Z,82.12
2022-10-17T14:32:50.097Z,80.62
2022-10-17T14:33:51.220Z,80.68
2022-10-17T14:34:50.068Z,81.09
2022-10-17T14:35:50.053Z,81.48
2022-10-17T14:36:50.054Z,81.88
2022-10-17T14:37:50.036Z,81.59
2022-10-17T14:38:50.028Z,80.48
2022-10-17T14:39:50.012Z,82.09
2022-10-17T14:40:50.010Z,80.68
2022-10-17T14:41:50.001Z,80.48
2022-10-17T14:42:49.975Z,80.58
2022-10-17T14:43:49.976Z,81.38
2022-10-17T14:44:49.957Z,80.18
2022-10-17T14:45:49.945Z,79.78
2022-10-17T14:46:51.134Z,79.44
2022-10-17T14:47:50.399Z,79.14
2022-10-17T14:48:49.916Z,79.74
2022-10-17T14:49:49.906Z,79.85
2022-10-17T14:50:49.913Z,79.64
2022-10-17T14:51:56.965Z,78.64
2022-10-17T14:52:49.877Z,79.50
2022-10-17T14:53:49.872Z,78.50
2022-10-17T14:54:49.855Z,79.21
2022-10-17T14:55:49.843Z,78.70
2022-10-17T14:56:49.850Z,78.60
2022-10-17T14:57:49.821Z,78.41
2022-10-17T14:58:49.802Z,79.10
2022-10-17T14:59:54.575Z,78.70
2022-10-17T15:00:49.794Z,80.41
2022-10-17T15:01:49.800Z,79.54
2022-10-17T15:02:49.763Z,79.54
2022-10-17T15:03:49.757Z,79.85
2022-10-17T15:04:49.752Z,79.64
2022-10-17T15:05:49.761Z,79.34
2022-10-17T15:06:49.736Z,79.68
2022-10-17T15:07:49.720Z,80.65
2022-10-17T15:08:49.715Z,80.15
2022-10-17T15:09:49.702Z,79.54
2022-10-17T15:10:49.680Z,79.88
2022-10-17T15:11:49.692Z,79.78
2022-10-17T15:12:57.571Z,79.78
2022-10-17T15:13:49.655Z,81.18
2022-10-17T15:14:49.637Z,80.28
2022-10-17T15:15:49.631Z,80.18
2022-10-17T15:16:49.636Z,80.68
2022-10-17T15:17:49.613Z,80.08
2022-10-17T15:18:49.592Z,79.48
2022-10-17T15:19:49.584Z,79.68
2022-10-17T15:20:55.398Z,80.58
2022-10-17T15:21:49.583Z,80.79
2022-10-17T15:22:49.553Z,80.42
2022-10-17T15:23:49.550Z,80.32
2022-10-17T15:24:49.534Z,80.52
2022-10-17T15:25:49.543Z,80.92
2022-10-17T15:26:49.706Z,81.12
2022-10-17T15:27:49.506Z,81.42
2022-10-17T15:28:49.544Z,81.42
2022-10-17T15:29:49.484Z,81.32
2022-10-17T15:30:49.471Z,81.52
2022-10-17T15:31:49.478Z,81.73
2022-10-17T15:32:49.451Z,82.17
2022-10-17T15:33:49.439Z,82.57
2022-10-17T15:34:49.423Z,82.67
2022-10-17T15:35:49.943Z,83.77
2022-10-17T15:36:49.442Z,83.07
2022-10-17T15:37:49.398Z,83.17
2022-10-17T15:38:49.378Z,83.47
2022-10-17T15:39:49.380Z,83.71
2022-10-17T15:40:49.365Z,83.61
2022-10-17T15:41:49.349Z,83.91
2022-10-17T15:42:49.360Z,84.31
2022-10-17T15:43:49.334Z,84.31
2022-10-17T15:44:49.314Z,84.51
2022-10-17T15:45:49.314Z,83.91
2022-10-17T15:46:49.289Z,84.71
2022-10-17T15:47:49.303Z,85.31
2022-10-17T15:48:49.273Z,86.12
2022-10-17T15:49:49.267Z,86.66
2022-10-17T15:50:49.255Z,87.16
2022-10-17T15:51:55.176Z,87.21
2022-10-17T15:52:49.250Z,89.31
2022-10-17T15:53:49.219Z,89.01
2022-10-17T15:54:49.206Z,89.31
2022-10-17T15:55:49.201Z,88.85
2022-10-17T15:56:49.182Z,89.26
2022-10-17T15:57:49.197Z,89.86
2022-10-17T15:58:49.162Z,89.66
2022-10-17T15:59:49.153Z,89.15
2022-10-17T16:00:49.182Z,90.26
2022-10-17T16:01:49.153Z,91.57
2022-10-17T16:02:49.124Z,89.56
2022-10-17T16:03:49.110Z,89.76
2022-10-17T16:04:49.098Z,89.56
2022-10-17T16:05:49.088Z,89.36
2022-10-17T16:06:49.096Z,89.96
2022-10-17T16:07:49.071Z,90.36
2022-10-17T16:08:49.058Z,89.96
2022-10-17T16:09:49.047Z,90.00
2022-10-17T16:10:49.043Z,89.66
2022-10-17T16:11:49.043Z,89.76
2022-10-17T16:12:49.015Z,89.56
2022-10-17T16:13:49.008Z,89.26
2022-10-17T16:14:48.993Z,89.86
2022-10-17T16:15:48.995Z,90.16
2022-10-17T16:16:48.989Z,90.97
2022-10-17T16:17:48.976Z,92.22
2022-10-17T16:18:48.965Z,93.02
2022-10-17T16:19:48.953Z,93.87
2022-10-17T16:20:48.930Z,94.57
2022-10-17T16:21:48.937Z,95.12
2022-10-17T16:22:48.909Z,94.82
2022-10-17T16:23:48.904Z,96.33
2022-10-17T16:24:48.885Z,96.13
2022-10-17T16:25:48.886Z,96.68
2022-10-17T16:26:48.882Z,97.58
2022-10-17T16:27:48.861Z,98.19
2022-10-17T16:28:48.922Z,99.44
2022-10-17T16:29:48.842Z,98.94
2022-10-17T16:30:48.845Z,99.54
2022-10-17T16:31:48.815Z,99.99
2022-10-17T16:32:48.803Z,99.99
2022-10-17T16:33:48.807Z,99.99
2022-10-17T16:34:48.779Z,99.99
2022-10-17T16:35:48.793Z,99.99
2022-10-17T16:36:48.760Z,99.99
2022-10-17T16:37:48.757Z,99.99
2022-10-17T16:38:48.752Z,99.99
2022-10-17T16:39:48.735Z,99.99
2022-10-17T16:40:48.739Z,99.99
2022-10-17T16:41:48.716Z,99.99
2022-10-17T16:42:48.702Z,99.99
2022-10-17T16:43:48.694Z,99.99
2022-10-17T16:44:48.689Z,99.99
2022-10-17T16:45:48.697Z,99.99
2022-10-17T16:46:48.665Z,99.99
2022-10-17T16:47:48.656Z,99.99
2022-10-17T16:48:48.641Z,99.99
2022-10-17T16:49:48.639Z,99.99
2022-10-17T16:50:48.654Z,99.99
2022-10-17T16:51:48.637Z,99.99
2022-10-17T16:52:48.599Z,99.99
2022-10-17T16:53:48.597Z,99.99
2022-10-17T16:54:48.585Z,99.99
2022-10-17T16:55:48.589Z,99.99
2022-10-17T16:56:48.555Z,99.99
2022-10-17T16:57:48.930Z,99.99
2022-10-17T16:58:48.535Z,99.99
2022-10-17T16:59:48.528Z,99.99
2022-10-17T17:00:48.612Z,99.99
2022-10-17T17:01:48.513Z,99.99
2022-10-17T17:02:48.498Z,99.99
2022-10-17T17:03:48.486Z,99.99
2022-10-17T17:04:48.473Z,99.99
2022-10-17T17:05:48.478Z,99.99
2022-10-17T17:06:48.457Z,99.99
2022-10-17T17:07:48.439Z,99.99
2022-10-17T17:08:48.436Z,99.99
2022-10-17T17:09:48.429Z,99.99
2022-10-17T17:10:48.419Z,99.99
2022-10-17T17:11:48.408Z,99.99
2022-10-17T17:12:48.398Z,99.99
2022-10-17T17:13:48.400Z,99.99
2022-10-17T17:14:48.373Z,99.99
2022-10-17T17:15:48.380Z,99.99
2022-10-17T17:16:48.356Z,99.99
2022-10-17T17:17:52.431Z,99.99
2022-10-17T17:18:48.341Z,99.99
2022-10-17T17:19:48.331Z,99.99
2022-10-17T17:20:48.326Z,99.99
2022-10-17T17:21:48.297Z,99.99
2022-10-17T17:22:48.300Z,99.99
2022-10-17T17:23:48.281Z,99.99
2022-10-17T17:25:48.278Z,99.99
2022-10-17T17:26:48.245Z,99.99
2022-10-17T17:27:48.241Z,99.99
2022-10-17T17:28:48.271Z,99.99
2022-10-17T17:29:48.215Z,99.99
2022-10-17T17:30:48.220Z,99.99
2022-10-17T17:31:48.190Z,99.99
2022-10-17T17:32:48.196Z,99.99
2022-10-17T17:33:48.210Z,99.99
2022-10-17T17:34:48.165Z,99.99
2022-10-17T17:35:48.160Z,99.99
2022-10-17T17:36:48.145Z,99.99
2022-10-17T17:37:48.129Z,99.99
2022-10-17T17:38:48.127Z,99.99
2022-10-17T17:39:48.109Z,99.99
2022-10-17T17:40:50.686Z,99.99
2022-10-17T17:41:48.093Z,99.99
2022-10-17T17:42:48.114Z,99.99
2022-10-17T17:43:48.069Z,99.99
2022-10-17T17:44:48.063Z,99.99